Gallup Municipal Airport
KGUP : now visible

Airfield :











YOU CAN JOIN US ON...

 
LOGIN :

Register | Disclaimer

   EN    FR    IT 

 









Legend :    VFR   Marginal VFR   IFR   Intensive IFR   Very Intensive IFR
Visi :
Ceiling :
>= 8 km
>= 3000ft
5 to 8 km
1000 to 3000 ft
1500m to 5 km
500 to 1000 ft
800 to 1500m
200 to 500 ft
< 800m
< 200 ft
Symbols :   Thunderstorms  Fog  Heavy snow  Heavy precipitations  Wind > 20 kt






- Airport Elevation : 6472 ft
- IATA code : GUP


KGUP - Gallup Municipal

CURRENT METAR :
  • 081753Z AUTO 07011G16KT 10SM FEW080 18/M03 A3017 RMK AO2 SLP135 T01781033 10178 21022 58008

EXPIRED METARs :
  • 081653Z AUTO VRB04KT 10SM FEW070 16/M03 A3019 RMK AO2 SLP152 T01611033
  • 081553Z AUTO 05004KT 10SM CLR 14/M04 A3021 RMK AO2 SLP158 T01441044

TAF KGUP
Valid from the 08 at 18:00 until the 09 at 18:00 UTC


081720Z 0818/0918 16008KT P6SM FEW100
FM082100 21014G22KT P6SM SCT090
TEMPO 0822/0902 BKN090
FM090200 21010KT P6SM BKN130
FM091600 23008KT P6SM SCT150



MET'MAP, your aeronautical weather chart ! - Copyright ORBIFLY December 2007 - Disclaimer

ORBIFLY MET'MAP TEAM :

Programming & Development : Alexandra Zaïnal
Concept & original design : Baudouin d'Aumeries
Assistance for programming : Marc-Olivier Méhu
Technical & hardware support : Manuel Goepfert

Contact : metmap@orbifly.com




SOURCES & CREDITS :

   NOAA       Earth
Advisory